createdAt,value
2023-01-12T00:02:38.569Z,66.81
2023-01-12T00:07:40.967Z,66.87
2023-01-12T00:12:43.269Z,66.77
2023-01-12T00:17:45.617Z,66.70
2023-01-12T00:22:49.935Z,67.01
2023-01-12T00:27:52.270Z,66.96
2023-01-12T00:32:54.548Z,66.75
2023-01-12T00:37:56.818Z,66.90
2023-01-12T00:43:17.514Z,66.91
2023-01-12T00:48:22.152Z,66.82
2023-01-12T00:53:24.389Z,66.78
2023-01-12T00:58:28.901Z,66.82
2023-01-12T01:03:31.122Z,66.71
2023-01-12T01:08:37.049Z,66.67
2023-01-12T01:13:44.358Z,66.79
2023-01-12T01:18:46.643Z,66.79
2023-01-12T01:23:48.940Z,66.88
2023-01-12T01:28:51.774Z,66.83
2023-01-12T01:33:54.163Z,66.80
2023-01-12T01:38:56.508Z,66.65
2023-01-12T01:44:26.439Z,66.77
2023-01-12T01:49:30.221Z,67.22
2023-01-12T01:54:38.644Z,67.03
2023-01-12T01:59:44.627Z,66.77
2023-01-12T02:04:46.996Z,66.81
2023-01-12T02:09:49.315Z,67.06
2023-01-12T02:15:11.087Z,66.94
2023-01-12T02:20:26.711Z,67.12
2023-01-12T02:26:18.606Z,66.97
2023-01-12T02:31:43.632Z,67.21
2023-01-12T02:37:23.424Z,67.06
2023-01-12T02:42:56.578Z,67.31
2023-01-12T02:48:10.036Z,67.20
2023-01-12T02:53:28.449Z,67.25
2023-01-12T02:58:33.952Z,67.21
2023-01-12T03:03:39.933Z,67.32
2023-01-12T03:08:42.300Z,67.24
2023-01-12T03:13:50.041Z,67.28
2023-01-12T03:18:58.257Z,67.34
2023-01-12T03:24:07.222Z,67.56
2023-01-12T03:29:11.011Z,67.55
2023-01-12T03:34:13.386Z,67.38
2023-01-12T03:39:38.507Z,67.46
2023-01-12T03:44:46.952Z,67.40
2023-01-12T03:50:05.894Z,67.39
2023-01-12T03:55:10.732Z,67.29
2023-01-12T04:00:14.596Z,67.44
2023-01-12T04:05:17.353Z,67.28
2023-01-12T04:10:19.629Z,67.26
2023-01-12T04:15:21.999Z,67.34
2023-01-12T04:20:24.363Z,67.53
2023-01-12T04:25:26.753Z,67.24
2023-01-12T04:30:33.636Z,67.55
2023-01-12T04:35:35.984Z,67.53
2023-01-12T04:40:38.459Z,67.50
2023-01-12T04:45:43.945Z,67.25
2023-01-12T04:50:46.556Z,67.65
2023-01-12T04:55:49.883Z,67.67
2023-01-12T05:00:58.322Z,67.63
2023-01-12T05:06:02.320Z,67.61
2023-01-12T05:11:04.722Z,67.34
2023-01-12T05:16:11.958Z,67.49
2023-01-12T05:21:15.931Z,67.49
2023-01-12T05:26:18.705Z,67.47
2023-01-12T05:31:21.074Z,67.30
2023-01-12T05:36:25.686Z,67.64
2023-01-12T05:41:28.901Z,67.63
2023-01-12T05:46:33.513Z,67.47
2023-01-12T05:51:35.755Z,67.46
2023-01-12T05:56:38.267Z,67.54
2023-01-12T06:01:41.427Z,67.78
2023-01-12T06:06:43.716Z,67.52
2023-01-12T06:12:04.333Z,67.35
2023-01-12T06:17:08.120Z,67.33
2023-01-12T06:22:10.409Z,67.48
2023-01-12T06:27:12.725Z,67.32
2023-01-12T06:32:15.060Z,67.15
2023-01-12T06:37:17.316Z,67.13
2023-01-12T06:42:32.159Z,67.18
2023-01-12T06:47:34.580Z,67.34
2023-01-12T06:52:37.092Z,67.18
2023-01-12T06:57:39.487Z,67.08
2023-01-12T07:02:42.586Z,67.04
2023-01-12T07:07:45.271Z,67.25
2023-01-12T07:12:47.547Z,67.08
2023-01-12T07:17:56.183Z,67.03
2023-01-12T07:22:58.581Z,66.98
2023-01-12T07:28:01.054Z,67.27
2023-01-12T07:33:10.979Z,67.15
2023-01-12T07:38:13.602Z,66.67
2023-01-12T07:43:17.540Z,66.34
2023-01-12T07:48:21.484Z,65.77
2023-01-12T07:53:24.148Z,64.67
2023-01-12T07:58:27.856Z,62.91
2023-01-12T08:03:30.209Z,61.03
2023-01-12T08:08:32.665Z,61.05
2023-01-12T08:13:35.728Z,62.37
2023-01-12T08:18:55.534Z,63.31
2023-01-12T08:23:58.105Z,64.75
2023-01-12T08:29:04.861Z,64.79
2023-01-12T08:34:08.117Z,64.83
2023-01-12T08:39:10.404Z,64.77
2023-01-12T08:44:12.823Z,65.14
2023-01-12T08:49:17.161Z,65.41
2023-01-12T08:54:20.579Z,65.20
2023-01-12T08:59:22.940Z,65.10
2023-01-12T09:04:25.351Z,65.59
2023-01-12T09:09:27.887Z,65.82
2023-01-12T09:14:30.237Z,65.76
2023-01-12T09:19:32.573Z,65.72
2023-01-12T09:24:34.817Z,65.80
2023-01-12T09:29:37.059Z,66.21
2023-01-12T09:34:39.382Z,66.24
2023-01-12T09:39:41.623Z,66.27
2023-01-12T09:45:11.429Z,66.20
2023-01-12T09:50:42.312Z,66.30
2023-01-12T09:56:05.109Z,66.27
2023-01-12T10:01:20.496Z,66.25
2023-01-12T10:06:30.548Z,66.40
2023-01-12T10:11:49.058Z,66.42
2023-01-12T10:17:10.108Z,66.37
2023-01-12T10:22:39.423Z,66.46
2023-01-12T10:27:44.661Z,66.38
2023-01-12T10:32:47.059Z,66.27
2023-01-12T10:37:53.069Z,66.59
2023-01-12T10:43:20.056Z,66.39
2023-01-12T10:48:23.152Z,66.41
2023-01-12T10:53:41.645Z,66.42
2023-01-12T10:58:47.999Z,66.59
2023-01-12T11:03:50.330Z,66.39
2023-01-12T11:08:52.952Z,66.63
2023-01-12T11:13:58.011Z,66.61
2023-01-12T11:19:00.220Z,66.55
2023-01-12T11:24:15.311Z,66.73
2023-01-12T11:29:32.236Z,66.88
2023-01-12T11:34:40.080Z,66.59
2023-01-12T11:39:44.029Z,66.68
2023-01-12T11:44:55.427Z,66.71
2023-01-12T11:50:23.685Z,66.89
2023-01-12T11:55:47.760Z,66.67
2023-01-12T12:00:59.004Z,66.73
2023-01-12T12:06:49.114Z,66.60
2023-01-12T12:12:13.106Z,66.83
2023-01-12T12:17:34.069Z,66.43
2023-01-12T12:23:08.673Z,66.59
2023-01-12T12:28:31.921Z,66.37
2023-01-12T12:33:40.208Z,66.51
2023-01-12T12:39:24.939Z,66.77
2023-01-12T12:45:04.161Z,66.66
2023-01-12T12:50:13.832Z,66.45
2023-01-12T12:55:16.172Z,66.52
2023-01-12T13:00:46.957Z,66.66
2023-01-12T13:05:51.183Z,66.71
2023-01-12T13:10:58.955Z,66.86
2023-01-12T13:16:19.584Z,66.70
2023-01-12T13:21:56.349Z,66.62
2023-01-12T13:27:01.021Z,67.00
2023-01-12T13:32:41.479Z,66.79
2023-01-12T13:37:58.845Z,66.98
2023-01-12T13:43:16.047Z,67.07
2023-01-12T13:48:19.660Z,67.12
2023-01-12T13:53:28.885Z,67.28
2023-01-12T13:58:38.576Z,67.36
2023-01-12T14:03:40.868Z,67.30
2023-01-12T14:09:08.948Z,67.42
2023-01-12T14:14:44.933Z,67.40
2023-01-12T14:19:54.434Z,67.62
2023-01-12T14:25:22.896Z,67.82
2023-01-12T14:30:27.698Z,67.52
2023-01-12T14:35:29.968Z,67.57
2023-01-12T14:40:33.314Z,67.74
2023-01-12T14:45:54.102Z,67.69
2023-01-12T14:51:14.381Z,67.86
2023-01-12T14:56:21.496Z,68.01
2023-01-12T15:01:36.161Z,68.08
2023-01-12T15:06:41.149Z,68.13
2023-01-12T15:11:43.460Z,68.32
2023-01-12T15:17:04.067Z,68.38
2023-01-12T15:22:32.729Z,68.21
2023-01-12T15:27:35.422Z,68.17
2023-01-12T15:32:48.800Z,68.33
2023-01-12T15:37:54.457Z,68.45
2023-01-12T15:42:58.953Z,68.70
2023-01-12T15:48:02.659Z,68.47
2023-01-12T15:53:15.148Z,68.77
2023-01-12T15:58:19.768Z,68.62
2023-01-12T16:03:54.636Z,68.58
2023-01-12T16:08:44.281Z,68.77
2023-01-12T16:13:48.432Z,68.66
2023-01-12T16:18:50.649Z,68.71
2023-01-12T16:23:53.932Z,68.68
2023-01-12T16:28:57.913Z,68.82
2023-01-12T16:34:00.286Z,68.89
2023-01-12T16:39:02.855Z,68.91
2023-01-12T16:44:05.329Z,68.92
2023-01-12T16:49:07.581Z,69.10
2023-01-12T16:54:09.855Z,68.97
2023-01-12T16:59:12.141Z,69.28
2023-01-12T17:04:14.826Z,69.07
2023-01-12T17:09:17.375Z,69.27
2023-01-12T17:14:25.821Z,68.93
2023-01-12T17:19:29.165Z,69.35
2023-01-12T17:24:32.368Z,69.19
2023-01-12T17:29:35.075Z,69.21
2023-01-12T17:34:39.618Z,69.41
2023-01-12T17:39:45.261Z,69.49
2023-01-12T17:44:47.655Z,69.54
2023-01-12T17:49:50.054Z,69.54
2023-01-12T17:54:52.467Z,69.54
2023-01-12T17:59:55.089Z,69.49
2023-01-12T18:04:57.500Z,69.52
2023-01-12T18:09:59.886Z,69.91
2023-01-12T18:15:02.208Z,69.91
2023-01-12T18:20:07.571Z,69.65
2023-01-12T18:25:10.151Z,69.75
2023-01-12T18:30:12.843Z,69.69
2023-01-12T18:35:17.065Z,69.93
2023-01-12T18:40:19.639Z,69.75
2023-01-12T18:45:24.558Z,70.01
2023-01-12T18:50:48.387Z,69.79
2023-01-12T18:56:01.574Z,70.14
2023-01-12T19:01:14.093Z,69.88
2023-01-12T19:06:51.101Z,70.14
2023-01-12T19:11:53.476Z,70.19
2023-01-12T19:17:14.261Z,70.13
2023-01-12T19:22:36.045Z,70.12
2023-01-12T19:27:56.804Z,70.05
2023-01-12T19:33:05.324Z,70.35
2023-01-12T19:38:11.930Z,70.34
2023-01-12T19:43:20.568Z,70.46
2023-01-12T19:48:25.169Z,70.46
2023-01-12T19:53:27.448Z,70.27
2023-01-12T19:58:29.850Z,70.32
2023-01-12T20:03:32.416Z,70.30
2023-01-12T20:08:35.001Z,70.41
2023-01-12T20:13:37.398Z,70.65
2023-01-12T20:18:43.650Z,70.43
2023-01-12T20:23:45.970Z,70.63
2023-01-12T20:28:48.251Z,70.87
2023-01-12T20:33:50.618Z,70.61
2023-01-12T20:38:55.374Z,70.73
2023-01-12T20:43:57.721Z,70.69
2023-01-12T20:49:02.572Z,70.89
2023-01-12T20:54:05.698Z,71.04
2023-01-12T20:59:08.824Z,70.97
2023-01-12T21:04:11.455Z,71.03
2023-01-12T21:09:13.817Z,70.72
2023-01-12T21:14:16.502Z,71.13
2023-01-12T21:19:19.340Z,71.10
2023-01-12T21:24:21.704Z,71.27
2023-01-12T21:29:25.557Z,71.03
2023-01-12T21:34:27.932Z,71.25
2023-01-12T21:39:30.433Z,71.17
2023-01-12T21:44:32.880Z,71.18
2023-01-12T21:49:35.085Z,71.21
2023-01-12T21:54:37.501Z,71.26
2023-01-12T21:59:39.777Z,71.50
2023-01-12T22:04:42.076Z,71.56
2023-01-12T22:09:44.527Z,71.41
2023-01-12T22:14:46.837Z,71.62
2023-01-12T22:19:49.524Z,71.69
2023-01-12T22:24:51.751Z,71.87
2023-01-12T22:29:54.033Z,71.88
2023-01-12T22:34:58.877Z,71.91
2023-01-12T22:40:01.253Z,72.01
2023-01-12T22:45:06.008Z,71.90
2023-01-12T22:50:09.760Z,72.05
2023-01-12T22:55:12.120Z,72.12
2023-01-12T23:00:19.089Z,72.21
2023-01-12T23:05:21.462Z,72.05
2023-01-12T23:10:23.793Z,72.40
2023-01-12T23:15:26.024Z,72.06
2023-01-12T23:20:28.368Z,72.16
2023-01-12T23:25:32.968Z,72.27
2023-01-12T23:30:35.419Z,72.49
2023-01-12T23:35:40.221Z,72.52
2023-01-12T23:40:42.528Z,72.40
2023-01-12T23:45:44.847Z,72.61
2023-01-12T23:50:47.091Z,72.54
2023-01-12T23:55:49.298Z,72.72
